Time;durP1;ratioP1;P1;durP2;ratioP2;P2;SDS_P1;SDS_P2;PMS_P1;PMS_P2;Temp;Humidity;BMP_temperature;BMP_pressure;BME280_temperature;BME280_humidity;BME280_pressure;Samples;Min_cycle;Max_cycle;Signal;HPM_P1;HPM_P2
2021/11/23 00:00:46;;;;;;;25.95;13.93;;;-0.50;99.90;;;-0.17;100.00;101913.75;5033831;28;20385;-80
2021/11/23 00:03:17;;;;;;;21.98;13.18;;;-0.50;99.90;;;-0.18;100.00;101920.31;5000841;28;20044;-78
2021/11/23 00:05:45;;;;;;;25.77;14.95;;;-0.60;99.90;;;-0.21;100.00;101918.09;5016427;28;20037;-78
2021/11/23 00:08:13;;;;;;;26.42;15.10;;;-0.60;99.90;;;-0.24;100.00;101921.34;5034837;28;20401;-79
2021/11/23 00:10:41;;;;;;;25.13;13.95;;;-0.60;99.90;;;-0.22;100.00;101916.41;5052516;28;20078;-77
2021/11/23 00:13:11;;;;;;;27.40;14.02;;;-0.60;99.90;;;-0.18;100.00;101921.16;5020215;28;20029;-80
2021/11/23 00:15:37;;;;;;;27.63;13.80;;;-0.50;99.90;;;-0.18;100.00;101931.31;5042925;28;20055;-80
2021/11/23 00:18:11;;;;;;;23.90;13.75;;;-0.50;99.90;;;-0.22;100.00;101922.75;5065924;28;20376;-80
2021/11/23 00:20:42;;;;;;;26.40;15.18;;;-0.50;99.90;;;-0.19;100.00;101919.47;5028499;28;20499;-83
2021/11/23 00:23:11;;;;;;;30.92;14.80;;;-0.50;99.90;;;-0.18;100.00;101925.81;5042307;28;20466;-83
2021/11/23 00:25:37;;;;;;;27.58;14.02;;;-0.50;99.90;;;-0.14;100.00;101925.06;5040291;28;20051;-82
2021/11/23 00:28:05;;;;;;;28.77;14.90;;;-0.50;99.90;;;-0.12;100.00;101916.53;5057629;28;20021;-79
2021/11/23 00:34:32;;;;;;;27.67;14.45;;;-0.40;99.90;;;-0.12;100.00;101916.53;5054656;28;20040;-80
2021/11/23 00:37:02;;;;;;;26.25;14.98;;;-0.50;99.90;;;-0.12;100.00;101914.63;5055785;28;20510;-81
2021/11/23 00:39:28;;;;;;;25.73;13.27;;;-0.40;99.90;;;-0.05;100.00;101914.44;5055332;28;20029;-81
2021/11/23 00:41:54;;;;;;;29.00;14.65;;;-0.40;99.90;;;0.00;100.00;101914.50;5054740;28;20032;-77
2021/11/23 00:44:21;;;;;;;27.40;14.32;;;-0.40;99.90;;;0.00;100.00;101915.31;5054438;28;20033;-81
2021/11/23 00:46:50;;;;;;;30.15;15.27;;;-0.30;99.90;;;-0.01;100.00;101913.69;5036301;28;20036;-80
2021/11/23 00:49:18;;;;;;;28.65;15.88;;;-0.30;99.90;;;0.02;100.00;101911.50;5035572;28;20036;-78
2021/11/23 00:51:44;;;;;;;27.95;15.10;;;-0.30;99.90;;;0.03;100.00;101914.00;5034998;28;20474;-77
2021/11/23 00:54:11;;;;;;;26.85;15.75;;;-0.30;99.90;;;0.07;100.00;101917.88;5055276;28;20154;-79
2021/11/23 00:56:38;;;;;;;32.88;15.05;;;-0.20;99.90;;;0.11;100.00;101913.53;5035399;28;20472;-79
2021/11/23 00:59:04;;;;;;;30.42;15.68;;;-0.20;99.90;;;0.13;100.00;101905.84;5052089;28;20081;-81
2021/11/23 01:01:33;;;;;;;34.70;16.20;;;-0.20;99.90;;;0.13;100.00;101902.28;5051680;28;20029;-79
2021/11/23 01:03:59;;;;;;;33.95;16.08;;;-0.20;99.90;;;0.15;100.00;101909.19;5050453;28;20033;-81
2021/11/23 01:06:33;;;;;;;31.35;17.60;;;-0.20;99.90;;;0.21;100.00;101904.56;5052082;28;20119;-79
2021/11/23 01:09:03;;;;;;;29.75;15.95;;;-0.10;99.90;;;0.29;100.00;101912.34;5034312;28;20115;-79
2021/11/23 01:11:29;;;;;;;31.90;16.88;;;0.00;99.90;;;0.34;100.00;101904.16;5033613;28;20044;-79
2021/11/23 01:13:55;;;;;;;30.50;15.95;;;0.00;99.90;;;0.36;100.00;101918.44;5033378;28;21728;-81
2021/11/23 01:16:21;;;;;;;31.67;16.42;;;0.00;99.90;;;0.36;100.00;101904.69;5051702;28;20035;-80
2021/11/23 01:18:53;;;;;;;31.38;15.68;;;0.10;99.90;;;0.38;100.00;101911.63;5050219;28;20043;-78
2021/11/23 01:21:19;;;;;;;31.65;15.80;;;0.10;99.90;;;0.40;100.00;101897.59;5051610;28;20025;-80
2021/11/23 01:23:59;;;;;;;28.58;16.00;;;0.10;99.90;;;0.38;100.00;101903.38;5051183;28;20037;-78
2021/11/23 01:26:28;;;;;;;30.08;15.38;;;0.10;99.90;;;0.36;100.00;101905.53;5051720;28;20480;-79
2021/11/23 01:28:55;;;;;;;30.88;16.90;;;0.10;99.90;;;0.37;100.00;101909.13;5051609;28;20037;-80
2021/11/23 01:31:22;;;;;;;27.15;15.18;;;0.00;99.90;;;0.34;100.00;101910.47;5052329;28;20094;-80
2021/11/23 01:33:48;;;;;;;28.17;15.90;;;0.00;99.90;;;0.30;100.00;101912.06;5050029;28;20365;-80
2021/11/23 01:36:14;;;;;;;26.20;15.38;;;-0.10;99.90;;;0.25;100.00;101909.28;5051540;28;20053;-79
2021/11/23 01:38:40;;;;;;;23.40;14.43;;;-0.10;99.90;;;0.22;100.00;101909.81;5050316;28;20057;-79
2021/11/23 01:41:08;;;;;;;27.98;14.93;;;-0.10;99.90;;;0.19;100.00;101906.75;5050259;28;20045;-80
2021/11/23 01:43:35;;;;;;;25.80;13.57;;;-0.20;99.90;;;0.20;100.00;101906.47;5033815;28;20048;-79
2021/11/23 01:46:02;;;;;;;24.63;14.98;;;-0.20;99.90;;;0.19;100.00;101898.50;5033687;28;20051;-78
2021/11/23 01:48:28;;;;;;;24.63;14.02;;;-0.20;99.90;;;0.19;100.00;101906.75;5034040;28;20029;-79
2021/11/23 01:50:54;;;;;;;26.30;15.48;;;-0.20;99.90;;;0.17;100.00;101904.25;5033435;28;20112;-79
2021/11/23 01:53:23;;;;;;;29.42;14.70;;;-0.20;99.90;;;0.16;100.00;101908.06;5033362;28;20365;-81
2021/11/23 01:55:54;;;;;;;26.00;14.25;;;-0.20;99.90;;;0.22;100.00;101915.31;5038777;23;20384;-76
2021/11/23 01:58:21;;;;;;;23.95;14.63;;;-0.20;99.90;;;0.24;100.00;101917.78;5015852;28;20025;-77
2021/11/23 02:00:47;;;;;;;28.33;14.13;;;-0.20;99.90;;;0.17;100.00;101907.00;5016727;28;20120;-76
2021/11/23 02:03:15;;;;;;;29.95;15.77;;;-0.20;99.90;;;0.13;100.00;101913.28;5032493;28;20026;-77
2021/11/23 02:05:41;;;;;;;25.33;14.07;;;-0.20;99.90;;;0.11;100.00;101899.78;5031926;28;20025;-78
2021/11/23 02:08:11;;;;;;;33.88;14.95;;;-0.20;99.90;;;0.11;100.00;101915.44;5032258;28;20566;-77
2021/11/23 02:10:39;;;;;;;28.80;14.40;;;-0.30;99.90;;;0.13;100.00;101914.06;5037309;28;20030;-77
2021/11/23 02:13:06;;;;;;;27.02;13.60;;;-0.30;99.90;;;0.10;100.00;101903.59;5036642;28;20034;-76
2021/11/23 02:15:33;;;;;;;22.85;13.95;;;-0.30;99.90;;;0.06;100.00;101913.47;5036636;28;20030;-78
2021/11/23 02:18:11;;;;;;;24.08;13.00;;;-0.30;99.90;;;0.03;100.00;101914.00;5035770;28;20029;-77
2021/11/23 02:20:44;;;;;;;27.17;14.80;;;-0.30;99.90;;;-0.01;100.00;101908.19;5036632;28;20032;-77
2021/11/23 02:23:11;;;;;;;25.05;14.10;;;-0.40;99.90;;;-0.02;100.00;101917.50;5035971;28;20519;-79
2021/11/23 02:25:37;;;;;;;29.95;15.05;;;-0.40;99.90;;;-0.01;100.00;101905.44;5031635;28;20037;-77
2021/11/23 02:28:07;;;;;;;29.77;15.63;;;-0.40;99.90;;;0.07;100.00;101900.53;5032077;28;20420;-78
2021/11/23 02:30:54;;;;;;;24.80;14.68;;;-0.30;99.90;;;0.15;100.00;101906.44;5035003;28;20026;-76
2021/11/23 02:33:25;;;;;;;27.92;15.38;;;-0.30;99.90;;;0.18;100.00;101916.91;5035929;28;20033;-78
2021/11/23 02:35:56;;;;;;;30.30;16.10;;;-0.20;99.90;;;0.23;100.00;101910.59;5035204;28;20369;-77
2021/11/23 02:38:25;;;;;;;39.22;18.38;;;-0.10;99.90;;;0.28;100.00;101908.78;5033698;28;20021;-77
2021/11/23 02:40:52;;;;;;;29.30;16.58;;;0.00;99.90;;;0.41;100.00;101908.34;5034269;28;20492;-75
2021/11/23 02:43:19;;;;;;;39.08;18.02;;;0.00;99.90;;;0.43;100.00;101899.81;5051251;28;20161;-78
2021/11/23 02:45:45;;;;;;;34.70;18.48;;;0.10;99.90;;;0.52;100.00;101892.75;5037742;28;20486;-79
2021/11/23 02:48:14;;;;;;;31.35;17.90;;;0.20;99.90;;;0.56;100.00;101893.06;5037969;28;20056;-79
2021/11/23 02:50:48;;;;;;;32.90;18.70;;;0.20;99.90;;;0.69;100.00;101896.22;5035522;28;20029;-78
2021/11/23 02:53:18;;;;;;;31.05;17.95;;;0.30;99.90;;;0.81;100.00;101902.38;5034517;28;20488;-78
2021/11/23 02:55:44;;;;;;;35.10;16.42;;;0.40;99.90;;;0.93;100.00;101910.44;5035347;28;20038;-78
2021/11/23 02:58:13;;;;;;;29.85;15.63;;;0.50;99.90;;;1.01;100.00;101908.03;5035980;28;20033;-77
2021/11/23 03:00:40;;;;;;;29.65;17.30;;;0.60;99.90;;;1.04;100.00;101903.91;5034452;28;20083;-75
2021/11/23 03:03:10;;;;;;;30.65;17.50;;;0.70;99.90;;;1.10;100.00;101908.34;5036193;28;20032;-77
2021/11/23 03:05:45;;;;;;;28.75;16.08;;;0.70;99.90;;;1.19;100.00;101900.44;5034079;28;20018;-77
2021/11/23 03:08:11;;;;;;;24.15;14.50;;;0.80;99.90;;;1.25;100.00;101900.22;5033230;28;20392;-76
2021/11/23 03:10:37;;;;;;;29.88;15.52;;;0.80;99.90;;;1.27;100.00;101895.28;5035537;28;20053;-80
2021/11/23 03:13:06;;;;;;;29.95;16.17;;;0.90;99.90;;;1.34;100.00;101897.78;5036579;28;20029;-77
2021/11/23 03:15:32;;;;;;;23.77;14.68;;;0.90;99.90;;;1.38;100.00;101890.66;5037678;28;20105;-79
2021/11/23 03:18:02;;;;;;;22.63;15.15;;;1.00;99.90;;;1.36;100.00;101901.91;5036828;28;20029;-78
2021/11/23 03:20:34;;;;;;;29.98;14.90;;;1.00;99.90;;;1.37;100.00;101900.84;5036585;28;20029;-78
2021/11/23 03:23:00;;;;;;;26.80;15.18;;;1.00;99.90;;;1.39;100.00;101889.53;5034672;28;20045;-78
2021/11/23 03:25:30;;;;;;;31.63;15.50;;;1.00;99.90;;;1.42;100.00;101886.25;5036432;28;20033;-79
2021/11/23 03:28:00;;;;;;;26.73;14.63;;;1.10;99.90;;;1.42;100.00;101881.59;5035139;28;20100;-78
2021/11/23 03:30:30;;;;;;;23.45;13.82;;;1.10;99.90;;;1.50;100.00;101880.25;5035042;28;20079;-78
2021/11/23 03:32:57;;;;;;;25.90;14.35;;;1.20;99.90;;;1.51;100.00;101876.38;5034827;28;20465;-79
2021/11/23 03:35:27;;;;;;;22.55;13.77;;;1.20;99.90;;;1.56;100.00;101876.41;5036647;28;20061;-78
2021/11/23 03:37:55;;;;;;;24.60;15.20;;;1.20;99.90;;;1.62;100.00;101874.50;5034858;28;20420;-78
2021/11/23 03:40:25;;;;;;;27.30;15.18;;;1.30;99.90;;;1.68;100.00;101870.69;5034286;28;20388;-78
2021/11/23 03:42:53;;;;;;;24.15;13.60;;;1.30;99.90;;;1.68;100.00;101870.69;5034508;28;20364;-77
2021/11/23 03:45:19;;;;;;;24.45;14.10;;;1.30;99.90;;;1.69;100.00;101881.44;5034762;28;20029;-76
2021/11/23 03:47:45;;;;;;;28.83;14.70;;;1.30;99.90;;;1.71;100.00;101882.00;5035239;28;20029;-78
2021/11/23 03:50:14;;;;;;;25.95;15.05;;;1.30;99.90;;;1.75;100.00;101876.78;5035163;28;20026;-79
2021/11/23 03:52:42;;;;;;;21.88;13.48;;;1.40;99.90;;;1.79;100.00;101878.72;5035233;28;20029;-80
2021/11/23 03:55:19;;;;;;;19.35;12.60;;;1.40;99.90;;;1.86;100.00;101875.72;5034742;28;20025;-77
2021/11/23 03:57:48;;;;;;;22.65;13.77;;;1.40;99.90;;;1.90;100.00;101874.06;5034793;28;20036;-78
2021/11/23 04:00:19;;;;;;;20.67;13.35;;;1.40;99.90;;;1.91;100.00;101873.81;5034594;28;20087;-77
2021/11/23 04:02:48;;;;;;;22.50;13.23;;;1.50;99.90;;;1.96;100.00;101875.72;5035018;28;20169;-79
2021/11/23 04:05:17;;;;;;;20.92;12.68;;;1.50;99.90;;;1.98;100.00;101870.78;5034825;28;20081;-77
2021/11/23 04:07:43;;;;;;;21.67;12.70;;;1.50;99.90;;;2.02;100.00;101882.94;5033514;28;20041;-77
2021/11/23 04:10:13;;;;;;;23.67;13.05;;;1.50;99.90;;;2.05;100.00;101874.13;5035631;28;20369;-80
2021/11/23 04:12:44;;;;;;;21.55;12.63;;;1.60;99.90;;;2.08;100.00;101870.81;5036545;28;20473;-78
2021/11/23 04:15:14;;;;;;;19.52;12.77;;;1.60;99.90;;;2.09;100.00;101864.19;5035587;28;20439;-77
2021/11/23 04:17:40;;;;;;;21.40;11.88;;;1.60;99.90;;;2.10;100.00;101869.44;5035379;28;20030;-78
2021/11/23 04:20:10;;;;;;;19.38;12.18;;;1.60;99.90;;;2.13;100.00;101866.16;5035254;28;20053;-79
2021/11/23 04:22:40;;;;;;;22.48;12.07;;;1.60;99.90;;;2.17;100.00;101869.19;5034265;28;20041;-77
2021/11/23 04:25:10;;;;;;;22.42;13.10;;;1.60;99.90;;;2.19;100.00;101863.38;5035924;28;20030;-78
2021/11/23 04:27:38;;;;;;;23.98;13.82;;;1.70;99.90;;;2.21;100.00;101867.53;5033542;28;20107;-78
2021/11/23 04:30:11;;;;;;;24.08;13.60;;;1.70;99.90;;;2.28;100.00;101868.09;5033680;28;20025;-78
2021/11/23 04:32:38;;;;;;;23.38;13.85;;;1.80;99.90;;;2.34;100.00;101863.44;5033405;28;20459;-78
2021/11/23 04:35:06;;;;;;;22.77;13.20;;;1.80;99.90;;;2.41;100.00;101875.03;5034920;28;20021;-77
2021/11/23 04:37:32;;;;;;;25.55;14.27;;;1.90;99.90;;;2.49;100.00;101880.81;5034688;28;20032;-79
2021/11/23 04:39:58;;;;;;;24.58;13.43;;;2.00;99.90;;;2.54;100.00;101869.78;5033537;28;20389;-79
2021/11/23 04:42:24;;;;;;;20.63;11.95;;;2.00;99.90;;;2.57;100.00;101873.91;5033285;28;20036;-79
2021/11/23 04:44:50;;;;;;;23.35;13.00;;;2.10;99.90;;;2.61;100.00;101873.09;5033251;28;20029;-77
2021/11/23 04:47:16;;;;;;;20.58;12.68;;;2.10;99.90;;;2.61;100.00;101867.56;5034740;28;20125;-78
2021/11/23 04:49:42;;;;;;;21.58;12.35;;;2.10;99.90;;;2.62;100.00;101869.25;5034904;28;20061;-78
2021/11/23 04:52:08;;;;;;;18.35;11.43;;;2.10;99.90;;;2.62;100.00;101865.66;5033100;28;20029;-78
2021/11/23 04:54:34;;;;;;;21.95;12.07;;;2.10;99.90;;;2.59;100.00;101861.50;5035324;28;20029;-78
2021/11/23 04:57:00;;;;;;;21.77;12.93;;;2.10;99.90;;;2.60;100.00;101857.63;5033398;28;20357;-78
2021/11/23 04:59:26;;;;;;;21.05;13.05;;;2.10;99.90;;;2.62;100.00;101860.13;5034941;28;20112;-79
2021/11/23 05:01:52;;;;;;;20.77;12.65;;;2.10;99.90;;;2.65;100.00;101856.81;5043414;28;20025;-79
2021/11/23 05:04:18;;;;;;;25.20;14.52;;;2.20;99.90;;;2.70;100.00;101856.00;5040822;28;20079;-78
2021/11/23 05:06:44;;;;;;;23.40;13.45;;;2.20;99.90;;;2.77;100.00;101853.78;5039272;28;20548;-77
2021/11/23 05:09:13;;;;;;;31.88;15.85;;;2.30;99.90;;;2.86;100.00;101850.16;5033931;28;20033;-78
2021/11/23 05:11:42;;;;;;;28.27;15.90;;;2.30;99.90;;;2.94;100.00;101848.78;5034355;28;20022;-77
2021/11/23 05:14:08;;;;;;;28.45;16.80;;;2.40;99.90;;;3.03;100.00;101852.63;5035014;28;20041;-77
2021/11/23 05:16:37;;;;;;;25.05;14.70;;;2.50;99.90;;;3.11;100.00;101850.13;5033258;28;20139;-77
2021/11/23 05:19:03;;;;;;;26.50;15.60;;;2.60;99.90;;;3.15;100.00;101858.69;5030796;28;20022;-78
2021/11/23 05:21:29;;;;;;;27.50;15.73;;;2.60;99.90;;;3.18;100.00;101858.13;5032998;28;20087;-77
2021/11/23 05:23:55;;;;;;;25.08;15.45;;;2.70;99.90;;;3.22;100.00;101853.69;5034007;28;20025;-80
2021/11/23 05:26:21;;;;;;;25.55;15.43;;;2.70;99.90;;;3.24;100.00;101853.44;5034801;28;20068;-78
2021/11/23 05:28:47;;;;;;;29.75;17.02;;;2.70;99.90;;;3.29;100.00;101853.41;5034307;28;20579;-80
2021/11/23 05:31:13;;;;;;;27.98;16.80;;;2.80;99.90;;;3.31;100.00;101854.78;5036899;28;20384;-79
2021/11/23 05:33:38;;;;;;;26.75;16.25;;;2.80;99.90;;;3.35;100.00;101846.75;5035280;28;20060;-78
2021/11/23 05:36:04;;;;;;;33.30;17.25;;;2.80;99.90;;;3.39;100.00;101851.44;5035386;28;20029;-78
2021/11/23 05:38:30;;;;;;;28.27;17.15;;;2.90;99.90;;;3.42;100.00;101847.28;5034542;28;20033;-78
2021/11/23 05:40:56;;;;;;;32.05;18.48;;;2.90;99.90;;;3.41;100.00;101848.38;5035194;28;20104;-81
2021/11/23 05:43:22;;;;;;;31.27;19.13;;;2.90;99.90;;;3.47;100.00;101847.25;5032738;28;20029;-80
2021/11/23 05:45:51;;;;;;;36.53;17.23;;;3.00;99.90;;;3.53;100.00;101846.16;5034526;28;20030;-79
2021/11/23 05:48:23;;;;;;;33.50;17.55;;;3.00;99.90;;;3.54;100.00;101845.88;5034339;28;20076;-78
2021/11/23 05:50:49;;;;;;;33.17;17.98;;;3.00;99.90;;;3.59;100.00;101847.78;5033956;28;20516;-77
2021/11/23 05:53:18;;;;;;;33.70;18.30;;;3.00;99.90;;;3.61;100.00;101840.88;5034707;28;20392;-78
2021/11/23 05:55:44;;;;;;;33.80;18.52;;;3.10;99.90;;;3.63;100.00;101838.63;5033689;28;20064;-77
2021/11/23 05:58:16;;;;;;;27.65;16.85;;;3.10;99.90;;;3.67;100.00;101849.94;5034421;28;20029;-77
2021/11/23 06:00:42;;;;;;;35.85;19.48;;;3.20;99.90;;;3.69;100.00;101845.00;5033625;28;20416;-79
2021/11/23 06:03:08;;;;;;;34.65;16.15;;;3.20;99.90;;;3.71;100.00;101837.22;5035686;28;20036;-77
2021/11/23 06:05:40;;;;;;;36.58;17.08;;;3.20;99.90;;;3.70;100.00;101841.09;5037777;28;20311;-78
2021/11/23 06:08:06;;;;;;;31.65;18.48;;;3.20;99.90;;;3.69;100.00;101840.25;5036867;28;20091;-77
2021/11/23 06:10:47;;;;;;;27.92;16.48;;;3.20;99.90;;;3.76;100.00;101844.69;5035894;28;20029;-78
2021/11/23 06:13:13;;;;;;;30.38;16.85;;;3.20;99.90;;;3.80;100.00;101848.50;5035734;28;20408;-78
2021/11/23 06:15:42;;;;;;;31.88;17.40;;;3.20;99.90;;;3.79;100.00;101841.34;5037006;28;20025;-76
2021/11/23 06:18:10;;;;;;;33.35;17.35;;;3.30;99.90;;;3.84;100.00;101842.13;5035361;28;20056;-76
2021/11/23 06:20:37;;;;;;;33.67;18.40;;;3.30;99.90;;;3.88;100.00;101846.00;5035828;28;20192;-77
2021/11/23 06:23:04;;;;;;;37.10;19.60;;;3.30;99.90;;;3.92;100.00;101847.06;5034749;28;20404;-77
2021/11/23 06:25:30;;;;;;;30.17;17.10;;;3.40;99.90;;;3.97;100.00;101846.22;5034336;28;20436;-76
2021/11/23 06:27:57;;;;;;;36.88;20.50;;;3.40;99.90;;;4.01;100.00;101841.78;5036036;28;20119;-76
2021/11/23 06:30:24;;;;;;;30.80;18.05;;;3.50;99.90;;;4.07;100.00;101844.22;5036533;28;20027;-76
2021/11/23 06:32:50;;;;;;;31.95;17.23;;;3.50;99.90;;;4.11;100.00;101848.06;5035962;28;20030;-78
2021/11/23 06:35:16;;;;;;;41.45;18.83;;;3.60;99.90;;;4.15;100.00;101851.91;5035852;28;20381;-77
2021/11/23 06:37:45;;;;;;;34.35;17.95;;;3.60;99.90;;;4.23;100.00;101845.78;5037152;28;20469;-77
2021/11/23 06:40:11;;;;;;;32.20;18.17;;;3.70;99.90;;;4.30;100.00;101848.22;5035649;28;20172;-77
2021/11/23 06:42:37;;;;;;;37.33;17.42;;;3.70;99.90;;;4.33;100.00;101846.81;5034505;28;20045;-76
2021/11/23 06:45:07;;;;;;;35.00;17.65;;;3.80;99.90;;;4.34;100.00;101851.22;5033562;28;20040;-78
2021/11/23 06:47:33;;;;;;;29.67;15.52;;;3.80;99.90;;;4.40;100.00;101859.19;5034917;28;20079;-77
2021/11/23 06:49:59;;;;;;;34.88;18.02;;;3.80;99.90;;;4.45;100.00;101848.09;5036544;28;20531;-81
2021/11/23 06:52:28;;;;;;;31.02;18.50;;;3.90;99.90;;;4.44;100.00;101848.38;5035121;28;20083;-77
2021/11/23 06:54:54;;;;;;;34.50;18.55;;;3.90;99.90;;;4.47;100.00;101854.16;5036220;28;20041;-76
2021/11/23 06:57:23;;;;;;;29.27;16.88;;;3.90;99.90;;;4.49;100.00;101859.44;5037829;28;20045;-78
2021/11/23 06:59:49;;;;;;;37.22;17.77;;;3.90;99.90;;;4.53;100.00;101872.38;5037786;28;20053;-79
2021/11/23 07:02:15;;;;;;;32.25;17.55;;;4.00;99.90;;;4.57;100.00;101864.34;5037931;28;20085;-79
2021/11/23 07:04:41;;;;;;;33.13;15.82;;;4.00;99.90;;;4.57;100.00;101870.69;5037998;28;20030;-78
2021/11/23 07:07:09;;;;;;;36.05;17.42;;;4.00;99.90;;;4.54;100.00;101871.28;5035662;28;20112;-77
2021/11/23 07:09:38;;;;;;;34.65;17.80;;;4.00;99.90;;;4.54;100.00;101884.28;5038027;28;20026;-78
2021/11/23 07:12:05;;;;;;;33.92;17.10;;;4.00;99.90;;;4.55;100.00;101880.41;5039062;28;20026;-78
2021/11/23 07:14:31;;;;;;;36.10;17.05;;;4.00;99.90;;;4.59;100.00;101887.03;5035850;28;20025;-77
2021/11/23 07:17:06;;;;;;;37.40;17.35;;;4.00;99.90;;;4.54;100.00;101887.88;5035964;28;20029;-79
2021/11/23 07:19:32;;;;;;;33.17;17.15;;;4.00;99.90;;;4.54;100.00;101887.88;5037756;28;20374;-78
2021/11/23 07:21:58;;;;;;;32.90;18.27;;;4.00;99.90;;;4.50;100.00;101892.31;5037215;28;20049;-77
2021/11/23 07:24:27;;;;;;;37.17;18.55;;;4.00;99.90;;;4.53;100.00;101900.06;5035387;28;20519;-77
2021/11/23 07:26:54;;;;;;;36.75;18.40;;;4.00;99.90;;;4.53;100.00;101902.81;5037337;28;20029;-79
2021/11/23 07:29:20;;;;;;;39.63;19.42;;;4.00;99.90;;;4.53;100.00;101896.44;5037507;28;20045;-78
2021/11/23 07:31:46;;;;;;;35.45;19.90;;;4.00;99.90;;;4.51;100.00;101902.28;5035412;28;20044;-77
2021/11/23 07:34:12;;;;;;;35.60;19.05;;;4.00;99.90;;;4.50;100.00;101903.38;5034325;28;20105;-76
2021/11/23 07:36:38;;;;;;;36.22;19.70;;;4.00;99.90;;;4.38;100.00;101905.69;5035759;28;20109;-78
2021/11/23 07:39:08;;;;;;;39.45;20.60;;;3.90;99.90;;;4.40;100.00;101913.72;5036706;28;20021;-76
2021/11/23 07:41:35;;;;;;;38.33;20.92;;;3.90;99.90;;;4.47;100.00;101916.97;5034724;28;20028;-79
2021/11/23 07:44:03;;;;;;;34.97;19.48;;;3.90;99.90;;;4.43;100.00;101924.22;5034236;28;20034;-78
2021/11/23 07:46:29;;;;;;;42.00;20.67;;;3.90;99.90;;;4.44;100.00;101928.59;5036372;28;20026;-78
2021/11/23 07:48:55;;;;;;;39.55;20.75;;;3.90;99.90;;;4.41;100.00;101921.72;5036179;28;20052;-78
2021/11/23 07:51:22;;;;;;;39.92;21.88;;;3.90;99.90;;;4.46;100.00;101920.88;5035027;28;20052;-78
2021/11/23 07:53:49;;;;;;;37.90;21.33;;;3.90;99.90;;;4.45;100.00;101914.50;5033489;28;20044;-78
2021/11/23 07:56:15;;;;;;;45.33;22.42;;;3.90;99.90;;;4.44;100.00;101925.84;5034435;28;20033;-76
2021/11/23 07:58:41;;;;;;;42.42;23.27;;;3.90;99.90;;;4.47;100.00;101925.28;5033124;28;20180;-76
2021/11/23 08:01:07;;;;;;;44.75;23.15;;;3.90;99.90;;;4.50;100.00;101931.06;5034632;28;20131;-80
2021/11/23 08:03:33;;;;;;;44.55;23.80;;;3.90;99.90;;;4.53;100.00;101927.72;5033812;28;20033;-77
2021/11/23 08:05:59;;;;;;;44.75;24.25;;;4.00;99.90;;;4.41;100.00;101924.47;5036299;28;20021;-78
2021/11/23 08:08:29;;;;;;;44.85;24.73;;;4.00;99.90;;;4.45;100.00;101933.88;5034643;28;20029;-77
2021/11/23 08:10:57;;;;;;;42.20;23.67;;;3.90;99.90;;;4.50;100.00;101935.75;5035282;28;20036;-78
2021/11/23 08:13:23;;;;;;;48.50;24.75;;;3.90;99.90;;;4.43;100.00;101941.63;5036991;28;20082;-79
2021/11/23 08:15:49;;;;;;;45.35;24.30;;;3.90;99.90;;;4.42;100.00;101934.44;5036387;28;20464;-78
2021/11/23 08:18:18;;;;;;;50.35;27.35;;;3.90;99.90;;;4.43;100.00;101935.28;5033816;28;20028;-77
2021/11/23 08:20:44;;;;;;;51.40;27.70;;;3.90;99.90;;;4.47;100.00;101936.34;5033657;28;20069;-78
2021/11/23 08:23:10;;;;;;;45.70;25.23;;;3.90;99.90;;;4.47;100.00;101939.09;5033013;28;20037;-77
2021/11/23 08:25:38;;;;;;;45.70;26.02;;;3.90;99.90;;;4.55;100.00;101936.59;5033018;28;20041;-78
2021/11/23 08:28:06;;;;;;;51.33;26.38;;;4.00;99.90;;;4.59;100.00;101940.41;5034060;28;20071;-77
2021/11/23 08:30:33;;;;;;;46.22;24.33;;;4.00;99.90;;;4.66;100.00;101942.84;5032818;28;20029;-76
2021/11/23 08:33:02;;;;;;;56.38;26.48;;;4.00;99.90;;;4.59;100.00;101939.59;5034808;28;20029;-78
2021/11/23 08:35:28;;;;;;;49.70;27.20;;;4.10;99.90;;;4.74;100.00;101937.56;5034757;28;20033;-77
2021/11/23 08:37:55;;;;;;;45.47;24.55;;;4.10;99.90;;;4.76;100.00;101943.63;5034718;28;20026;-77
2021/11/23 08:40:24;;;;;;;48.70;25.63;;;4.10;99.90;;;4.77;100.00;101939.75;5034943;28;20026;-77
2021/11/23 08:42:51;;;;;;;48.70;26.13;;;4.10;99.90;;;4.72;100.00;101947.22;5034277;28;20129;-77
2021/11/23 08:45:18;;;;;;;52.70;25.67;;;4.10;99.90;;;4.75;100.00;101952.22;5035796;28;20021;-78
2021/11/23 08:47:44;;;;;;;46.65;26.08;;;4.10;99.90;;;4.74;100.00;101950.56;5034834;28;20040;-77
2021/11/23 08:50:12;;;;;;;50.42;26.73;;;4.10;99.90;;;4.74;100.00;101947.78;5033543;28;20030;-78
2021/11/23 08:52:40;;;;;;;54.88;26.85;;;4.20;99.90;;;4.78;100.00;101951.66;5033014;28;20083;-77
2021/11/23 08:55:07;;;;;;;47.97;26.30;;;4.20;99.90;;;4.83;100.00;101956.28;5033263;28;20040;-76
2021/11/23 08:57:37;;;;;;;51.08;25.15;;;4.20;99.90;;;4.78;100.00;101952.44;5032093;28;20037;-79
2021/11/23 09:00:17;;;;;;;49.13;26.67;;;4.20;99.90;;;4.88;100.00;101961.81;5032539;28;20032;-77
2021/11/23 09:02:49;;;;;;;50.42;25.98;;;4.20;99.90;;;4.86;100.00;101958.50;5040460;28;20113;-78
2021/11/23 09:05:21;;;;;;;51.78;28.75;;;4.30;99.90;;;4.90;100.00;101957.63;5049794;28;20040;-78
2021/11/23 09:07:49;;;;;;;47.97;26.65;;;4.20;99.90;;;4.99;100.00;101960.59;5043667;28;20052;-78
2021/11/23 09:10:23;;;;;;;56.63;28.27;;;4.30;99.90;;;4.93;100.00;101964.53;5039113;28;20029;-76
2021/11/23 09:12:54;;;;;;;46.97;25.05;;;4.40;99.90;;;5.06;100.00;101964.72;5036900;28;20027;-77
2021/11/23 09:15:24;;;;;;;50.15;26.63;;;4.40;99.90;;;5.08;100.00;101962.47;5033909;28;20459;-77
2021/11/23 09:17:51;;;;;;;51.83;26.25;;;4.40;99.90;;;5.09;100.00;101963.28;5032676;28;20029;-77
2021/11/23 09:20:19;;;;;;;45.95;26.88;;;4.40;99.90;;;5.08;100.00;101972.72;5031971;28;20026;-77
2021/11/23 09:22:47;;;;;;;47.72;25.38;;;4.40;99.90;;;5.11;100.00;101975.72;5032506;28;20037;-76
2021/11/23 09:25:16;;;;;;;52.95;27.85;;;4.50;99.90;;;5.03;100.00;101975.53;5032381;28;20034;-77
2021/11/23 09:27:43;;;;;;;53.97;30.23;;;4.40;99.90;;;5.07;100.00;101971.06;5032714;28;20485;-77
2021/11/23 09:30:14;;;;;;;53.88;26.95;;;4.40;99.90;;;5.02;100.00;101976.63;5032532;28;20029;-76
2021/11/23 09:32:43;;;;;;;52.95;28.73;;;4.40;99.90;;;5.00;100.00;101974.19;5033347;28;20045;-77
2021/11/23 09:35:15;;;;;;;48.88;27.17;;;4.40;99.90;;;5.03;100.00;101976.38;5031907;28;20037;-77
2021/11/23 09:37:43;;;;;;;54.70;29.80;;;4.40;99.90;;;5.09;100.00;101985.44;5033364;28;20045;-77
2021/11/23 09:40:12;;;;;;;50.55;27.80;;;4.40;99.90;;;5.13;100.00;101979.06;5036008;28;20017;-77
2021/11/23 09:42:38;;;;;;;50.13;26.55;;;4.50;99.90;;;5.20;100.00;101981.50;5035919;28;20029;-77
2021/11/23 09:45:06;;;;;;;50.88;27.60;;;4.50;99.90;;;5.28;100.00;101987.22;5034635;28;20026;-77
2021/11/23 09:47:33;;;;;;;52.50;28.27;;;4.60;99.90;;;5.31;100.00;101983.88;5035915;28;20056;-78
2021/11/23 09:50:05;;;;;;;48.38;25.75;;;4.60;99.90;;;5.28;100.00;101986.41;5036096;28;20052;-77
2021/11/23 09:52:41;;;;;;;52.63;28.33;;;4.60;99.90;;;5.32;100.00;101988.31;5035829;28;20124;-77
2021/11/23 09:55:10;;;;;;;;;;;4.60;99.90;;;5.28;100.00;101978.91;5036157;28;20029;-77
2021/11/23 09:57:36;;;;;;;46.05;24.88;;;4.60;99.90;;;5.42;100.00;101984.63;5052047;28;19913;-76
2021/11/23 10:00:31;;;;;;;48.30;25.70;;;4.70;99.90;;;5.55;100.00;101974.78;5035974;28;20030;-78
2021/11/23 10:03:10;;;;;;;53.40;26.92;;;4.80;99.90;;;5.62;100.00;101976.09;5035764;28;20032;-77
2021/11/23 10:05:41;;;;;;;48.80;25.50;;;4.90;99.90;;;5.71;100.00;101960.50;5024335;28;20484;-77
2021/11/23 10:08:15;;;;;;;54.17;28.08;;;5.00;99.90;;;5.62;100.00;101966.97;5023632;28;20426;-79
2021/11/23 10:10:53;;;;;;;49.97;27.55;;;5.00;99.90;;;5.70;100.00;101961.59;5018981;28;20113;-77
2021/11/23 10:13:22;;;;;;;46.90;27.25;;;5.00;99.90;;;5.58;100.00;101958.41;5018091;28;20030;-77